Time;durP1;ratioP1;P1;durP2;ratioP2;P2;SDS_P1;SDS_P2;PMS_P1;PMS_P2;Temp;Humidity;BMP_temperature;BMP_pressure;BME280_temperature;BME280_humidity;BME280_pressure;Samples;Min_cycle;Max_cycle;Signal;HPM_P1;HPM_P2
2023/07/05 00:02:02;;;;;;;1.65;1.20;;;14.80;61.50;;;;;;5057616;28;20094;-80
2023/07/05 00:04:28;;;;;;;2.35;1.48;;;14.80;61.50;;;;;;5040239;28;20063;-80
2023/07/05 00:06:54;;;;;;;1.35;1.25;;;14.70;61.40;;;;;;5052242;28;20056;-79
2023/07/05 00:09:20;;;;;;;1.65;1.13;;;14.70;61.50;;;;;;5053461;28;20024;-79
2023/07/05 00:11:47;;;;;;;1.30;1.20;;;14.70;61.40;;;;;;5039684;28;20036;-79
2023/07/05 00:14:13;;;;;;;1.50;1.40;;;14.70;61.50;;;;;;5046795;28;20191;-79
2023/07/05 00:16:39;;;;;;;2.10;1.30;;;14.60;61.30;;;;;;5053428;28;20085;-79
2023/07/05 00:19:07;;;;;;;2.22;1.20;;;14.60;61.30;;;;;;5047255;28;20044;-79
2023/07/05 00:21:42;;;;;;;1.33;1.23;;;14.60;61.40;;;;;;5045518;28;20384;-80
2023/07/05 00:24:08;;;;;;;1.30;1.20;;;14.50;61.20;;;;;;5059704;28;20173;-80
2023/07/05 00:26:34;;;;;;;1.20;1.10;;;14.50;61.20;;;;;;5052640;28;20036;-80
2023/07/05 00:29:00;;;;;;;2.58;1.50;;;14.50;61.30;;;;;;5046499;28;20400;-80
2023/07/05 00:31:25;;;;;;;1.30;1.20;;;14.50;61.30;;;;;;5032212;28;20086;-80
2023/07/05 00:33:51;;;;;;;6.65;1.52;;;14.40;61.10;;;;;;5038301;28;20033;-80
2023/07/05 00:36:17;;;;;;;2.83;1.48;;;14.40;61.10;;;;;;5048801;28;20283;-80
2023/07/05 00:38:43;;;;;;;1.67;1.02;;;14.40;61.20;;;;;;5033469;28;20086;-82
2023/07/05 00:41:09;;;;;;;1.63;1.52;;;14.30;61.00;;;;;;5039953;28;20039;-81
2023/07/05 00:43:35;;;;;;;1.75;1.30;;;14.30;61.00;;;;;;5046714;28;20374;-81
2023/07/05 00:46:24;;;;;;;1.85;1.30;;;14.30;61.00;;;;;;5036116;28;20075;-81
2023/07/05 00:49:03;;;;;;;1.38;1.20;;;14.30;61.20;;;;;;5036837;28;20021;-81
2023/07/05 00:51:53;;;;;;;2.92;1.65;;;14.30;61.10;;;;;;5044641;28;20033;-82
2023/07/05 00:54:26;;;;;;;3.22;1.40;;;14.20;61.00;;;;;;5021426;28;20503;-81
2023/07/05 00:57:02;;;;;;;2.03;1.58;;;14.20;61.60;;;;;;5038499;28;20037;-81
2023/07/05 00:59:33;;;;;;;4.35;2.05;;;14.10;60.90;;;;;;5047076;28;20036;-81
2023/07/05 01:02:00;;;;;;;4.45;2.40;;;14.10;60.90;;;;;;5054769;28;20033;-81
2023/07/05 01:04:26;;;;;;;5.80;2.35;;;14.10;61.00;;;;;;5021039;28;20024;-80
2023/07/05 01:06:52;;;;;;;2.85;2.25;;;14.10;61.00;;;;;;5043073;28;20455;-81
2023/07/05 01:09:19;;;;;;;4.15;2.75;;;14.10;61.10;;;;;;5024939;28;20041;-80
2023/07/05 01:12:16;;;;;;;5.30;2.92;;;14.10;61.10;;;;;;5048631;28;20029;-80
2023/07/05 01:14:48;;;;;;;6.87;3.10;;;14.20;61.40;;;;;;5028476;28;20044;-80
2023/07/05 01:17:41;;;;;;;4.57;2.50;;;14.20;61.30;;;;;;5025066;28;20147;-82
2023/07/05 01:20:25;;;;;;;4.78;3.33;;;14.20;61.40;;;;;;5044968;28;20029;-79
2023/07/05 01:23:17;;;;;;;;;;;14.20;61.30;;;;;;5046052;28;20123;-79
2023/07/05 01:25:58;;;;;;;6.22;2.28;;;14.20;61.10;;;;;;5016509;28;19916;-79
2023/07/05 01:28:31;;;;;;;6.50;2.70;;;14.20;61.00;;;;;;5031305;28;20439;-79
2023/07/05 01:31:36;;;;;;;4.97;2.95;;;14.20;61.00;;;;;;5035915;28;20050;-79
2023/07/05 01:34:22;;;;;;;3.03;2.17;;;14.20;61.20;;;;;;5034708;28;20048;-80
2023/07/05 01:36:58;;;;;;;4.75;3.60;;;14.30;61.40;;;;;;5049277;28;20510;-80
2023/07/05 01:39:24;;;;;;;2.35;1.92;;;14.30;61.30;;;;;;5042102;28;20102;-81
2023/07/05 01:41:50;;;;;;;4.43;2.45;;;14.30;61.40;;;;;;5017039;28;20110;-79
2023/07/05 01:44:17;;;;;;;4.78;2.30;;;14.30;61.50;;;;;;5050830;28;20052;-82
2023/07/05 01:47:15;;;;;;;4.35;2.10;;;14.30;61.60;;;;;;5054257;28;20049;-80
2023/07/05 01:50:03;;;;;;;5.63;2.22;;;14.20;61.60;;;;;;5039523;28;20037;-81
2023/07/05 01:53:07;;;;;;;3.20;2.20;;;14.20;61.50;;;;;;5052311;28;20033;-79
2023/07/05 01:55:45;;;;;;;2.78;1.98;;;14.20;61.70;;;;;;5026373;28;20171;-79
2023/07/05 01:58:18;;;;;;;2.95;2.42;;;14.20;61.70;;;;;;5036929;28;20016;-80
2023/07/05 02:00:48;;;;;;;3.70;1.70;;;14.20;61.70;;;;;;5036995;28;20044;-79
2023/07/05 02:03:18;;;;;;;5.28;2.33;;;14.20;61.80;;;;;;5038216;28;20040;-79
2023/07/05 02:05:47;;;;;;;4.40;1.63;;;14.10;61.70;;;;;;5040616;28;20045;-79
2023/07/05 02:08:27;;;;;;;3.70;1.73;;;14.10;61.70;;;;;;5044090;28;20530;-79
2023/07/05 02:10:55;;;;;;;3.47;2.10;;;14.10;61.80;;;;;;5050945;28;20033;-79
2023/07/05 02:13:24;;;;;;;3.42;1.67;;;14.10;61.90;;;;;;5047997;28;20040;-79
2023/07/05 02:15:50;;;;;;;3.63;2.58;;;14.10;62.00;;;;;;5046608;28;20037;-79
2023/07/05 02:18:17;;;;;;;2.53;1.60;;;14.00;61.90;;;;;;5038211;28;20144;-79
2023/07/05 02:20:43;;;;;;;2.85;1.63;;;14.10;62.10;;;;;;5021593;28;20029;-79
2023/07/05 02:23:09;;;;;;;3.25;1.70;;;14.10;62.10;;;;;;5036978;28;20239;-79
2023/07/05 02:25:35;;;;;;;4.00;1.63;;;14.00;62.00;;;;;;5048949;28;20036;-80
2023/07/05 02:28:08;;;;;;;2.50;1.50;;;14.00;62.00;;;;;;5046242;28;20040;-79
2023/07/05 02:30:39;;;;;;;1.63;1.17;;;14.00;62.10;;;;;;5044309;28;20033;-79
2023/07/05 02:33:05;;;;;;;5.07;1.83;;;14.00;62.10;;;;;;5035550;28;20072;-79
2023/07/05 02:35:38;;;;;;;2.25;1.42;;;14.00;62.10;;;;;;5057958;28;20029;-79
2023/07/05 02:38:05;;;;;;;2.05;1.33;;;14.00;62.20;;;;;;5044904;28;20040;-79
2023/07/05 02:40:31;;;;;;;1.58;1.48;;;14.00;62.20;;;;;;5062678;28;20489;-79
2023/07/05 02:42:59;;;;;;;1.45;1.27;;;13.90;62.00;;;;;;5050469;28;20039;-79
2023/07/05 02:45:29;;;;;;;1.48;1.30;;;14.00;62.30;;;;;;5050004;28;20123;-80
2023/07/05 02:47:55;;;;;;;2.08;1.48;;;13.90;62.10;;;;;;5039788;28;20083;-79
2023/07/05 02:50:23;;;;;;;1.65;1.50;;;13.90;62.10;;;;;;5042974;28;20115;-80
2023/07/05 02:52:49;;;;;;;3.35;1.85;;;14.00;62.30;;;;;;5045700;28;20340;-80
2023/07/05 02:55:15;;;;;;;2.85;1.85;;;14.00;62.30;;;;;;5043471;28;20029;-81
2023/07/05 02:57:41;;;;;;;3.25;2.25;;;14.00;62.40;;;;;;5061886;28;20164;-79
2023/07/05 03:00:07;;;;;;;2.83;2.22;;;14.00;62.40;;;;;;5061585;28;20112;-80
2023/07/05 03:02:33;;;;;;;2.95;2.65;;;14.00;62.40;;;;;;5067098;28;20192;-80
2023/07/05 03:05:10;;;;;;;3.17;2.38;;;14.00;62.50;;;;;;5036037;28;20114;-81
2023/07/05 03:07:37;;;;;;;5.38;3.00;;;14.00;62.50;;;;;;5058051;28;20035;-81
2023/07/05 03:10:04;;;;;;;3.15;2.63;;;14.00;62.50;;;;;;5039328;28;20041;-81
2023/07/05 03:12:29;;;;;;;3.47;2.58;;;14.00;62.50;;;;;;5033473;28;20476;-80
2023/07/05 03:14:55;;;;;;;4.18;3.10;;;14.00;62.60;;;;;;5035993;28;20036;-80
2023/07/05 03:17:21;;;;;;;4.78;3.20;;;14.00;62.70;;;;;;5050675;28;20083;-80
2023/07/05 03:19:47;;;;;;;3.78;3.00;;;14.00;62.60;;;;;;5040375;28;20037;-81
2023/07/05 03:22:14;;;;;;;4.18;2.97;;;14.10;62.80;;;;;;5054848;28;20423;-81
2023/07/05 03:24:40;;;;;;;4.95;3.35;;;14.10;62.90;;;;;;5045022;28;20051;-80
2023/07/05 03:27:07;;;;;;;3.17;2.88;;;14.10;62.90;;;;;;5047026;28;20041;-81
2023/07/05 03:29:34;;;;;;;4.22;2.90;;;14.10;62.90;;;;;;5018806;28;20626;-80
2023/07/05 03:32:07;;;;;;;3.03;2.58;;;14.10;63.00;;;;;;5047373;28;20101;-80
2023/07/05 03:34:33;;;;;;;4.00;3.17;;;14.10;62.90;;;;;;5033654;28;20115;-80
2023/07/05 03:36:59;;;;;;;3.58;3.28;;;14.10;62.90;;;;;;5012948;28;20507;-80
2023/07/05 03:39:25;;;;;;;3.40;2.92;;;14.10;63.00;;;;;;5017207;28;20392;-80
2023/07/05 03:41:51;;;;;;;3.72;3.20;;;14.20;63.10;;;;;;5028086;28;20524;-80
2023/07/05 03:44:21;;;;;;;3.88;3.00;;;14.20;63.10;;;;;;5049919;28;20056;-80
2023/07/05 03:46:49;;;;;;;3.28;2.97;;;14.20;63.20;;;;;;5046746;28;20033;-80
2023/07/05 03:49:15;;;;;;;3.38;2.92;;;14.20;63.20;;;;;;5057553;28;20636;-79
2023/07/05 03:51:41;;;;;;;5.30;2.88;;;14.20;63.20;;;;;;5043976;28;20044;-80
2023/07/05 03:54:07;;;;;;;3.90;3.20;;;14.30;63.30;;;;;;5046396;28;20120;-80
2023/07/05 03:56:34;;;;;;;3.72;3.15;;;14.20;63.20;;;;;;5031250;28;20123;-80
2023/07/05 03:59:01;;;;;;;3.70;2.58;;;14.30;63.40;;;;;;5058621;28;20054;-80
2023/07/05 04:01:28;;;;;;;2.95;2.65;;;14.30;63.40;;;;;;5048322;28;20040;-79
2023/07/05 04:03:57;;;;;;;2.72;2.40;;;14.30;63.40;;;;;;5054397;28;20086;-79
2023/07/05 04:06:25;;;;;;;3.28;2.75;;;14.30;63.40;;;;;;5046841;28;20369;-79
2023/07/05 04:08:52;;;;;;;3.80;3.15;;;14.40;63.60;;;;;;5040677;28;20087;-80
2023/07/05 04:11:18;;;;;;;3.17;2.22;;;14.30;63.50;;;;;;5054276;28;20480;-79
2023/07/05 04:13:48;;;;;;;3.03;2.53;;;14.40;63.60;;;;;;5034540;28;20036;-80
2023/07/05 04:16:18;;;;;;;5.15;2.83;;;14.40;63.70;;;;;;5050508;28;20091;-79
2023/07/05 04:18:45;;;;;;;3.45;2.60;;;14.40;63.70;;;;;;5046036;28;20396;-79
2023/07/05 04:21:12;;;;;;;3.05;2.72;;;14.40;63.70;;;;;;5046804;28;20304;-81
2023/07/05 04:23:40;;;;;;;4.45;2.95;;;14.40;63.70;;;;;;5053381;28;20035;-80
2023/07/05 04:26:09;;;;;;;4.53;2.40;;;14.40;63.70;;;;;;5067011;28;20488;-80
2023/07/05 04:28:37;;;;;;;2.55;2.30;;;14.50;63.90;;;;;;5050801;28;20039;-80
2023/07/05 04:31:03;;;;;;;2.55;2.22;;;14.50;63.90;;;;;;5057427;28;20168;-80
2023/07/05 04:33:29;;;;;;;3.05;2.75;;;14.50;63.90;;;;;;5048620;28;20543;-80
2023/07/05 04:35:57;;;;;;;2.97;2.42;;;14.60;64.00;;;;;;5057413;28;20041;-80
2023/07/05 04:38:23;;;;;;;2.97;2.60;;;14.60;64.00;;;;;;5052445;28;20033;-79
2023/07/05 04:40:48;;;;;;;2.85;2.60;;;14.60;64.00;;;;;;5054233;28;20462;-79
2023/07/05 04:43:15;;;;;;;4.32;2.60;;;14.70;64.10;;;;;;5054053;28;20037;-79
2023/07/05 04:45:41;;;;;;;4.22;2.63;;;14.70;64.10;;;;;;5050568;28;20051;-79
2023/07/05 04:48:07;;;;;;;3.10;2.65;;;14.70;64.10;;;;;;5048151;28;20041;-79
2023/07/05 04:50:33;;;;;;;3.03;2.53;;;14.80;64.30;;;;;;5049712;28;20037;-79
2023/07/05 04:52:59;;;;;;;2.85;2.47;;;14.80;64.30;;;;;;5038246;28;20389;-80
2023/07/05 04:55:25;;;;;;;2.20;2.00;;;14.80;64.20;;;;;;5039707;28;20119;-79
2023/07/05 04:57:50;;;;;;;3.75;2.63;;;14.80;64.20;;;;;;5046678;28;20119;-79
2023/07/05 05:00:17;;;;;;;2.55;2.35;;;14.90;64.40;;;;;;5051483;28;20086;-80
2023/07/05 05:02:43;;;;;;;4.05;2.50;;;15.00;64.50;;;;;;5045677;28;20028;-80
2023/07/05 05:05:09;;;;;;;4.35;2.50;;;15.00;64.50;;;;;;5029538;28;20718;-78
2023/07/05 05:07:35;;;;;;;3.15;2.70;;;15.00;64.40;;;;;;5039122;28;20910;-79
2023/07/05 05:10:01;;;;;;;3.92;2.40;;;15.00;64.40;;;;;;5038125;28;20498;-78
2023/07/05 05:12:28;;;;;;;4.93;2.53;;;15.10;64.60;;;;;;5047390;28;20067;-79
2023/07/05 05:14:54;;;;;;;2.78;2.28;;;15.10;64.50;;;;;;5027913;28;20088;-78
2023/07/05 05:17:20;;;;;;;3.40;2.13;;;15.20;64.70;;;;;;5050079;28;20052;-79
2023/07/05 05:19:46;;;;;;;4.05;2.05;;;15.20;64.60;;;;;;5029379;28;20676;-79
2023/07/05 05:22:12;;;;;;;3.08;2.30;;;15.30;64.70;;;;;;5028597;28;20152;-80
2023/07/05 05:24:39;;;;;;;2.35;2.13;;;15.30;64.60;;;;;;5035054;28;20059;-80
2023/07/05 05:27:05;;;;;;;2.83;2.38;;;15.40;64.60;;;;;;5041189;28;20032;-79
2023/07/05 05:29:32;;;;;;;2.20;2.00;;;15.50;64.70;;;;;;5040380;28;20036;-80
2023/07/05 05:31:58;;;;;;;2.63;2.33;;;15.60;64.80;;;;;;5050727;28;20051;-80
2023/07/05 05:34:27;;;;;;;3.55;2.40;;;15.70;64.80;;;;;;5029196;28;20024;-80
2023/07/05 05:36:53;;;;;;;2.90;2.70;;;15.70;64.70;;;;;;5042038;28;20212;-79
2023/07/05 05:39:20;;;;;;;3.78;2.40;;;15.80;64.70;;;;;;5049156;28;20036;-78
2023/07/05 05:41:46;;;;;;;3.78;3.00;;;15.90;64.80;;;;;;5053564;28;20175;-79
2023/07/05 05:44:12;;;;;;;2.92;2.10;;;16.00;64.80;;;;;;5048280;28;20039;-78
2023/07/05 05:46:38;;;;;;;3.33;2.00;;;16.10;64.80;;;;;;5027570;28;20036;-78
2023/07/05 05:49:04;;;;;;;4.18;2.70;;;16.20;64.90;;;;;;5048827;28;20380;-77
2023/07/05 05:51:30;;;;;;;3.13;2.42;;;16.30;64.90;;;;;;5042807;28;20122;-76
2023/07/05 05:53:56;;;;;;;6.47;3.63;;;16.50;65.00;;;;;;5051999;28;20354;-76
2023/07/05 05:56:22;;;;;;;5.03;2.13;;;16.60;65.10;;;;;;5027209;28;20052;-76
2023/07/05 05:58:48;;;;;;;3.53;2.38;;;16.80;65.70;;;;;;5050435;28;20033;-76
2023/07/05 06:01:14;;;;;;;4.30;2.88;;;16.90;66.10;;;;;;5028462;28;20456;-79
2023/07/05 06:03:39;;;;;;;3.58;2.55;;;17.10;66.40;;;;;;5018139;28;20519;-77
2023/07/05 06:06:06;;;;;;;4.03;2.45;;;17.20;66.60;;;;;;5038155;28;20036;-78
2023/07/05 06:08:35;;;;;;;3.15;2.70;;;17.30;66.70;;;;;;5041710;28;20115;-77
2023/07/05 06:11:03;;;;;;;2.60;1.85;;;17.50;67.70;;;;;;5045524;28;20386;-76
2023/07/05 06:13:29;;;;;;;3.80;2.30;;;17.50;67.00;;;;;;5048556;28;20120;-76
2023/07/05 06:16:02;;;;;;;3.13;2.28;;;17.60;67.10;;;;;;5046588;28;20456;-78
2023/07/05 06:18:28;;;;;;;3.87;3.13;;;17.70;67.40;;;;;;5037693;28;20116;-78
2023/07/05 06:20:54;;;;;;;6.25;2.95;;;17.70;67.30;;;;;;5040025;28;20298;-78
2023/07/05 06:23:26;;;;;;;3.90;2.58;;;17.80;67.60;;;;;;5041506;28;20391;-78
2023/07/05 06:25:52;;;;;;;3.97;2.70;;;17.80;67.60;;;;;;5037233;28;20511;-78
2023/07/05 06:28:19;;;;;;;6.82;3.33;;;17.80;67.70;;;;;;5039748;28;20365;-79
2023/07/05 06:30:45;;;;;;;3.22;2.53;;;17.90;67.90;;;;;;5046950;28;20328;-78
2023/07/05 06:33:13;;;;;;;3.83;2.50;;;17.90;67.80;;;;;;5045195;28;20056;-79
2023/07/05 06:35:48;;;;;;;3.65;2.75;;;18.00;67.80;;;;;;5041294;28;20044;-78
2023/07/05 06:38:14;;;;;;;3.17;2.25;;;18.10;67.70;;;;;;5045056;28;20445;-79
2023/07/05 06:40:40;;;;;;;2.65;2.25;;;18.40;67.70;;;;;;5038377;28;20178;-78
2023/07/05 06:43:06;;;;;;;4.47;2.75;;;18.80;67.20;;;;;;5033377;28;20032;-78
2023/07/05 06:45:34;;;;;;;3.28;2.30;;;19.10;66.80;;;;;;5028979;28;20029;-78
2023/07/05 06:48:00;;;;;;;4.60;2.10;;;19.20;66.30;;;;;;5042707;28;20242;-77
2023/07/05 06:50:26;;;;;;;2.63;2.38;;;19.40;66.30;;;;;;5048529;28;20323;-77
2023/07/05 06:52:52;;;;;;;2.38;2.10;;;19.40;66.00;;;;;;5050030;28;20090;-78
2023/07/05 06:55:18;;;;;;;2.65;2.03;;;19.50;66.00;;;;;;5038922;28;20520;-78
2023/07/05 06:57:43;;;;;;;2.75;1.88;;;19.70;66.00;;;;;;5039123;28;20048;-77
2023/07/05 07:00:10;;;;;;;2.88;1.77;;;19.90;65.70;;;;;;5038597;28;20055;-77
2023/07/05 07:02:36;;;;;;;4.75;2.00;;;20.20;65.50;;;;;;5050450;28;20044;-78
2023/07/05 07:05:02;;;;;;;2.65;2.17;;;20.30;65.20;;;;;;5041624;28;20063;-77
2023/07/05 07:07:28;;;;;;;2.00;1.85;;;20.30;65.30;;;;;;5039092;28;20036;-78
2023/07/05 07:09:54;;;;;;;2.42;2.00;;;20.40;64.80;;;;;;5031741;28;20024;-77
2023/07/05 07:12:20;;;;;;;3.03;1.92;;;20.40;64.80;;;;;;5042526;28;20032;-77
2023/07/05 07:14:46;;;;;;;2.30;1.70;;;20.40;64.70;;;;;;5027969;28;20127;-78
2023/07/05 07:17:18;;;;;;;2.30;1.60;;;20.60;64.50;;;;;;5022368;28;20373;-78
2023/07/05 07:19:44;;;;;;;2.10;1.90;;;20.90;64.40;;;;;;5036745;28;20101;-77
2023/07/05 07:22:11;;;;;;;3.13;2.03;;;21.20;64.40;;;;;;5054760;28;20193;-77
2023/07/05 07:24:37;;;;;;;2.05;1.88;;;21.60;64.00;;;;;;5042819;28;20029;-78
2023/07/05 07:27:04;;;;;;;1.60;1.40;;;21.90;63.50;;;;;;5043011;28;20499;-77
2023/07/05 07:29:30;;;;;;;2.80;1.73;;;22.20;63.40;;;;;;5051527;28;20033;-77
2023/07/05 07:31:56;;;;;;;2.67;1.30;;;22.60;63.50;;;;;;5055948;28;20109;-79
2023/07/05 07:34:22;;;;;;;2.38;1.20;;;22.80;63.20;;;;;;5027752;28;20512;-78
2023/07/05 07:36:50;;;;;;;1.92;1.30;;;23.20;63.30;;;;;;5038420;28;20044;-79
2023/07/05 07:39:23;;;;;;;4.03;1.40;;;23.70;63.10;;;;;;5027404;28;20033;-79
2023/07/05 07:41:48;;;;;;;1.55;1.10;;;24.30;62.20;;;;;;5022610;28;20519;-81
2023/07/05 07:44:20;;;;;;;4.32;1.58;;;24.80;61.60;;;;;;5030882;28;20067;-82
2023/07/05 07:46:50;;;;;;;1.90;1.35;;;25.30;60.50;;;;;;5050837;28;20041;-80
2023/07/05 07:49:16;;;;;;;1.90;1.20;;;25.70;59.80;;;;;;5044682;28;20033;-78
2023/07/05 07:51:45;;;;;;;1.90;1.30;;;26.10;58.80;;;;;;5040302;28;20040;-79
2023/07/05 07:54:20;;;;;;;3.10;1.27;;;26.60;57.60;;;;;;5041338;28;20542;-80
2023/07/05 07:57:09;;;;;;;2.50;1.23;;;27.20;56.40;;;;;;5013264;28;20285;-80
2023/07/05 07:59:40;;;;;;;1.13;1.02;;;28.00;55.20;;;;;;5027605;28;20235;-80
2023/07/05 08:02:11;;;;;;;1.50;1.02;;;28.60;54.00;;;;;;5038697;28;20111;-80
2023/07/05 08:04:46;;;;;;;1.90;1.48;;;29.20;52.80;;;;;;5041070;28;20150;-80
2023/07/05 08:07:14;;;;;;;4.88;1.40;;;29.60;51.70;;;;;;5048853;28;20250;-79
2023/07/05 08:09:40;;;;;;;1.73;1.25;;;29.70;51.80;;;;;;5036387;28;20029;-79
2023/07/05 08:12:09;;;;;;;1.42;0.98;;;29.50;52.00;;;;;;5040957;28;20466;-80
2023/07/05 08:14:44;;;;;;;1.30;1.00;;;29.20;52.40;;;;;;5042271;28;20384;-80
2023/07/05 08:17:10;;;;;;;2.53;0.98;;;28.80;53.00;;;;;;5058552;28;20129;-79
2023/07/05 08:19:37;;;;;;;1.10;1.00;;;28.60;53.40;;;;;;5052716;28;20483;-80
2023/07/05 08:22:03;;;;;;;0.80;0.80;;;28.40;53.70;;;;;;5018386;28;20051;-79
2023/07/05 08:24:29;;;;;;;1.42;0.95;;;28.20;53.80;;;;;;5050132;28;20075;-78
2023/07/05 08:26:56;;;;;;;1.15;0.80;;;28.00;53.90;;;;;;5058354;28;20579;-81
2023/07/05 08:29:22;;;;;;;1.27;1.08;;;27.90;54.10;;;;;;5038764;28;20090;-80
2023/07/05 08:31:49;;;;;;;1.20;1.00;;;27.80;54.10;;;;;;5053040;28;20036;-81
2023/07/05 08:34:15;;;;;;;2.00;1.02;;;27.70;54.10;;;;;;5056181;28;20045;-81
2023/07/05 08:36:42;;;;;;;1.30;1.10;;;27.60;54.10;;;;;;5056606;28;20127;-83
2023/07/05 08:39:14;;;;;;;3.38;0.88;;;27.60;54.00;;;;;;5040528;28;20131;-81
2023/07/05 08:41:41;;;;;;;1.75;0.90;;;27.50;53.80;;;;;;5057578;28;20127;-79
2023/07/05 08:44:25;;;;;;;1.45;1.13;;;27.50;53.80;;;;;;5058572;28;20024;-79
2023/07/05 08:47:08;;;;;;;2.28;1.02;;;27.50;53.40;;;;;;5042360;28;20248;-80
2023/07/05 08:49:45;;;;;;;1.52;0.82;;;27.60;53.20;;;;;;5041796;28;20043;-79
2023/07/05 08:52:23;;;;;;;1.40;1.20;;;27.60;53.20;;;;;;5039665;28;20032;-79
2023/07/05 08:54:56;;;;;;;1.50;1.05;;;27.70;53.00;;;;;;5026860;28;20040;-80
2023/07/05 08:57:34;;;;;;;4.57;1.00;;;27.80;52.90;;;;;;5007294;28;20124;-79
2023/07/05 09:00:11;;;;;;;3.38;1.20;;;27.80;52.60;;;;;;5011383;28;20408;-80
2023/07/05 09:02:38;;;;;;;3.63;1.25;;;27.90;52.60;;;;;;5047364;28;20475;-81
2023/07/05 09:05:41;;;;;;;1.48;1.10;;;27.90;52.40;;;;;;5049777;28;20040;-80
2023/07/05 09:08:35;;;;;;;2.05;0.82;;;28.00;52.00;;;;;;5019657;28;20079;-80
2023/07/05 09:11:19;;;;;;;0.70;0.68;;;28.00;52.00;;;;;;5053111;28;20040;-79
2023/07/05 09:13:49;;;;;;;2.20;0.82;;;27.90;51.80;;;;;;5044139;28;20115;-81
2023/07/05 09:16:46;;;;;;;2.28;1.25;;;27.90;52.60;;;;;;5051859;28;20526;-81
2023/07/05 09:19:32;;;;;;;3.17;0.98;;;27.90;51.60;;;;;;5038016;28;20329;-81
2023/07/05 09:22:04;;;;;;;2.00;0.98;;;27.90;51.70;;;;;;4996265;28;20033;-82
2023/07/05 09:24:39;;;;;;;2.85;1.02;;;28.00;51.50;;;;;;5024335;28;20044;-81
2023/07/05 09:27:18;;;;;;;1.55;0.98;;;28.00;51.20;;;;;;5041819;28;20063;-82
2023/07/05 09:30:01;;;;;;;1.77;1.00;;;28.10;51.10;;;;;;5039495;28;20048;-81
2023/07/05 09:32:38;;;;;;;1.23;1.10;;;28.20;50.90;;;;;;5030588;28;20515;-82
2023/07/05 09:35:13;;;;;;;1.33;1.00;;;28.30;50.70;;;;;;5035715;28;20096;-81
2023/07/05 09:38:07;;;;;;;2.40;0.70;;;28.40;50.50;;;;;;5038250;28;20045;-82
2023/07/05 09:40:38;;;;;;;2.78;1.48;;;28.40;50.30;;;;;;5038616;28;20450;-82
2023/07/05 09:43:25;;;;;;;0.93;0.90;;;28.50;50.30;;;;;;5041293;28;20051;-81
2023/07/05 09:45:51;;;;;;;1.17;0.80;;;28.50;50.00;;;;;;5028151;28;20032;-81
2023/07/05 09:48:31;;;;;;;1.10;0.88;;;28.40;50.00;;;;;;5040267;28;20041;-82
2023/07/05 09:51:04;;;;;;;1.65;1.10;;;28.30;50.00;;;;;;5029269;28;20037;-79
2023/07/05 09:54:02;;;;;;;2.53;0.80;;;28.20;50.10;;;;;;5049273;28;20036;-80
2023/07/05 09:56:28;;;;;;;1.13;0.68;;;28.20;50.00;;;;;;5039223;28;20126;-80
2023/07/05 09:59:15;;;;;;;1.60;0.75;;;28.20;50.20;;;;;;5049769;28;20396;-80
2023/07/05 10:01:44;;;;;;;1.15;0.60;;;28.30;49.90;;;;;;5025746;28;20347;-82
2023/07/05 10:04:13;;;;;;;2.10;0.93;;;28.40;49.80;;;;;;5022423;28;20055;-82
2023/07/05 10:06:46;;;;;;;1.70;0.90;;;28.50;49.60;;;;;;5025076;28;20082;-81
2023/07/05 10:09:21;;;;;;;1.23;0.95;;;28.70;49.50;;;;;;5043895;28;20161;-86
2023/07/05 10:11:59;;;;;;;3.63;0.80;;;28.90;49.20;;;;;;5022907;28;20033;-84
2023/07/05 10:14:30;;;;;;;1.98;0.90;;;29.00;48.90;;;;;;5036355;28;20174;-80
2023/07/05 10:17:05;;;;;;;1.65;0.90;;;29.10;48.60;;;;;;5020836;28;20139;-79
2023/07/05 10:19:52;;;;;;;1.42;0.63;;;29.30;48.30;;;;;;5041578;28;20375;-80
2023/07/05 10:22:31;;;;;;;1.95;1.10;;;29.50;48.10;;;;;;5051293;28;20039;-80
2023/07/05 10:25:13;;;;;;;2.15;0.80;;;29.80;47.90;;;;;;5031629;28;20040;-80
2023/07/05 10:27:48;;;;;;;1.25;0.80;;;30.10;47.40;;;;;;5040245;28;20388;-79
2023/07/05 10:30:19;;;;;;;0.60;0.60;;;30.30;47.20;;;;;;5041329;28;20032;-80
2023/07/05 10:32:50;;;;;;;1.80;0.80;;;30.20;47.10;;;;;;5046278;28;20459;-80
2023/07/05 10:35:25;;;;;;;0.90;0.75;;;30.00;47.00;;;;;;5027226;28;20666;-80
2023/07/05 10:37:52;;;;;;;2.25;0.70;;;29.70;46.90;;;;;;5038870;28;20076;-81
2023/07/05 10:40:25;;;;;;;2.00;0.80;;;29.40;47.40;;;;;;5026654;28;20047;-81
2023/07/05 10:43:01;;;;;;;1.02;0.70;;;29.10;47.80;;;;;;5050393;28;20041;-81
2023/07/05 10:45:34;;;;;;;0.75;0.45;;;29.00;47.90;;;;;;5049440;28;20113;-80
2023/07/05 10:48:01;;;;;;;0.82;0.73;;;29.20;48.00;;;;;;5040924;28;20025;-81
2023/07/05 10:50:36;;;;;;;2.53;1.00;;;29.50;47.60;;;;;;5039802;28;20388;-81
2023/07/05 10:53:10;;;;;;;0.93;0.70;;;29.70;47.20;;;;;;5049342;28;20075;-82
2023/07/05 10:55:46;;;;;;;1.90;0.90;;;30.00;46.80;;;;;;5047883;28;20040;-79
2023/07/05 10:58:19;;;;;;;2.70;0.70;;;30.20;46.40;;;;;;5027538;28;20052;-81
2023/07/05 11:00:56;;;;;;;1.58;0.73;;;30.40;46.10;;;;;;5028528;28;20033;-81
2023/07/05 11:03:54;;;;;;;1.77;0.70;;;30.60;45.90;;;;;;5039893;28;20045;-80
2023/07/05 11:06:21;;;;;;;1.70;0.60;;;30.80;45.60;;;;;;5039011;28;20037;-81
2023/07/05 11:08:48;;;;;;;2.38;0.65;;;30.90;45.50;;;;;;5048503;28;20028;-81
2023/07/05 11:11:21;;;;;;;2.10;0.70;;;31.00;45.30;;;;;;5038300;28;20040;-82
2023/07/05 11:13:48;;;;;;;1.20;0.80;;;31.10;45.10;;;;;;5024169;28;20072;-81
2023/07/05 11:16:25;;;;;;;0.98;0.85;;;31.20;45.00;;;;;;5046691;28;20052;-82
2023/07/05 11:19:01;;;;;;;1.77;0.75;;;31.30;44.80;;;;;;5040072;28;20254;-79
2023/07/05 11:21:45;;;;;;;1.83;0.88;;;31.40;44.60;;;;;;5055458;28;20032;-80
2023/07/05 11:24:12;;;;;;;0.90;0.70;;;31.50;44.50;;;;;;5039457;28;20442;-82
2023/07/05 11:26:46;;;;;;;0.98;0.73;;;31.50;44.60;;;;;;5041315;28;20041;-78
2023/07/05 11:29:27;;;;;;;1.38;0.65;;;31.60;44.50;;;;;;5026751;28;20032;-79
2023/07/05 11:31:54;;;;;;;1.83;1.00;;;31.50;44.30;;;;;;5052920;28;20294;-78
2023/07/05 11:34:29;;;;;;;2.25;0.90;;;31.60;44.30;;;;;;5050353;28;20033;-83
2023/07/05 11:37:01;;;;;;;1.98;0.95;;;31.50;44.20;;;;;;5024928;28;20496;-80
2023/07/05 11:39:45;;;;;;;1.40;0.85;;;31.40;44.40;;;;;;5037076;28;20036;-80
2023/07/05 11:42:14;;;;;;;3.10;1.02;;;31.20;44.60;;;;;;5024371;28;20106;-79
2023/07/05 11:45:03;;;;;;;2.00;1.00;;;31.20;44.70;;;;;;5038981;28;20020;-79
2023/07/05 11:47:32;;;;;;;3.72;1.00;;;31.30;44.60;;;;;;5052092;28;20044;-80
2023/07/05 11:50:07;;;;;;;1.00;0.80;;;31.50;44.40;;;;;;5046903;28;20028;-79
2023/07/05 11:52:44;;;;;;;1.77;0.80;;;31.60;44.20;;;;;;5042470;28;20136;-79
2023/07/05 11:55:31;;;;;;;2.40;1.10;;;31.70;44.10;;;;;;5059367;28;20056;-80
2023/07/05 11:58:00;;;;;;;2.10;1.05;;;31.90;43.90;;;;;;5056381;28;20134;-80
2023/07/05 12:00:34;;;;;;;3.25;0.90;;;32.00;43.90;;;;;;5045727;28;20044;-80
2023/07/05 12:03:23;;;;;;;5.22;1.25;;;32.20;43.50;;;;;;5036917;28;20063;-80
2023/07/05 12:06:03;;;;;;;;;;;32.30;43.10;;;;;;5043168;28;20555;-81
2023/07/05 12:08:40;;;;;;;2.92;1.27;;;32.30;43.50;;;;;;5044529;28;20372;-82
2023/07/05 12:11:07;;;;;;;4.22;1.20;;;32.40;43.30;;;;;;5039539;28;20115;-80
2023/07/05 12:13:35;;;;;;;2.05;1.30;;;32.50;43.20;;;;;;5043240;28;20539;-81
2023/07/05 12:16:04;;;;;;;3.25;1.00;;;32.60;43.00;;;;;;5036462;28;20422;-82
2023/07/05 12:18:32;;;;;;;1.98;1.00;;;32.70;42.80;;;;;;5039800;28;20032;-82
2023/07/05 12:20:58;;;;;;;2.83;1.27;;;32.80;42.60;;;;;;5033569;28;20037;-81
2023/07/05 12:23:29;;;;;;;2.22;0.88;;;32.90;42.50;;;;;;5026024;28;20133;-80
2023/07/05 12:26:02;;;;;;;2.40;1.45;;;33.00;42.30;;;;;;5029649;28;20772;-81
2023/07/05 12:28:30;;;;;;;2.22;1.10;;;33.10;42.10;;;;;;5043745;28;20209;-81
2023/07/05 12:30:58;;;;;;;3.63;1.58;;;33.20;42.00;;;;;;5030599;28;20423;-81
2023/07/05 12:33:34;;;;;;;1.77;1.13;;;33.30;41.80;;;;;;5050033;28;20600;-82
2023/07/05 12:36:10;;;;;;;1.15;1.00;;;33.40;41.50;;;;;;5028479;28;20111;-81
2023/07/05 12:38:39;;;;;;;2.70;1.00;;;33.50;41.40;;;;;;5049404;28;20068;-80
2023/07/05 12:41:12;;;;;;;1.27;1.02;;;33.50;41.40;;;;;;5005305;28;20591;-81
2023/07/05 12:43:38;;;;;;;1.92;1.10;;;33.40;41.40;;;;;;5047381;28;20040;-80
2023/07/05 12:46:21;;;;;;;1.73;1.10;;;33.40;41.30;;;;;;5040567;28;20036;-83
2023/07/05 12:48:50;;;;;;;1.40;0.90;;;33.50;41.20;;;;;;5047262;28;20376;-82
2023/07/05 12:51:23;;;;;;;1.80;0.90;;;33.50;41.20;;;;;;5053192;28;20131;-83
2023/07/05 12:53:51;;;;;;;1.50;0.80;;;33.60;41.00;;;;;;5038705;28;20403;-82
2023/07/05 12:56:28;;;;;;;2.42;1.30;;;33.70;40.90;;;;;;5041804;28;20041;-81
2023/07/05 12:59:03;;;;;;;0.85;0.73;;;33.80;40.70;;;;;;5022167;28;20685;-82
2023/07/05 13:01:34;;;;;;;1.45;0.90;;;33.90;40.50;;;;;;5008729;28;20483;-83
2023/07/05 13:04:22;;;;;;;2.15;1.00;;;34.10;40.50;;;;;;5049919;28;20024;-83
2023/07/05 13:06:51;;;;;;;4.47;2.00;;;34.20;40.40;;;;;;5037666;28;20206;-81
2023/07/05 13:09:28;;;;;;;1.23;0.93;;;34.30;40.20;;;;;;5042052;28;20037;-81